Time;durP1;ratioP1;P1;durP2;ratioP2;P2;SDS_P1;SDS_P2;PMS_P1;PMS_P2;Temp;Humidity;BMP_temperature;BMP_pressure;BME280_temperature;BME280_humidity;BME280_pressure;Samples;Min_cycle;Max_cycle;Signal;HPM_P1;HPM_P2
2021/03/21 00:00:30;;;;;;;12.15;6.80;;;;;;;-0.09;63.74;96884.22;5028823;28;20050;-73
2021/03/21 00:02:56;;;;;;;12.57;6.82;;;;;;;-0.10;63.74;96887.97;5029443;28;20119;-73
2021/03/21 00:05:23;;;;;;;12.27;6.78;;;;;;;-0.17;63.95;96881.91;5028987;28;20108;-73
2021/03/21 00:07:54;;;;;;;12.02;6.43;;;;;;;-0.13;64.20;96882.25;5028488;28;20049;-73
2021/03/21 00:10:20;;;;;;;11.48;7.20;;;;;;;-0.25;64.47;96879.63;5028881;28;20049;-73
2021/03/21 00:12:47;;;;;;;11.27;6.60;;;;;;;-0.21;64.85;96880.75;5028536;28;20107;-73
2021/03/21 00:15:13;;;;;;;15.25;6.60;;;;;;;-0.17;64.96;96883.78;5029332;28;20057;-73
2021/03/21 00:17:39;;;;;;;11.07;5.35;;;;;;;-0.27;63.29;96876.34;5028222;28;20061;-73
2021/03/21 00:20:08;;;;;;;11.65;5.88;;;;;;;-0.23;63.50;96871.34;5029059;28;20053;-73
2021/03/21 00:22:34;;;;;;;9.63;6.03;;;;;;;-0.18;63.95;96879.47;5028617;28;20065;-71
2021/03/21 00:25:00;;;;;;;13.23;6.05;;;;;;;-0.09;62.99;96872.72;5029014;28;20049;-73
2021/03/21 00:27:26;;;;;;;9.90;5.15;;;;;;;-0.19;61.66;96867.97;5028158;28;20513;-73
2021/03/21 00:29:53;;;;;;;7.38;4.68;;;;;;;-0.31;61.52;96862.66;5028905;28;20050;-73
2021/03/21 00:32:19;;;;;;;10.20;5.22;;;;;;;-0.41;61.18;96865.13;5028797;28;20524;-73
2021/03/21 00:34:45;;;;;;;8.10;4.93;;;;;;;-0.38;60.86;96869.97;5028166;28;20045;-73
2021/03/21 00:37:11;;;;;;;10.45;5.15;;;;;;;-0.40;61.27;96857.91;5028929;28;20144;-74
2021/03/21 00:39:37;;;;;;;9.70;4.75;;;;;;;-0.36;61.03;96862.53;5031400;28;20037;-72
2021/03/21 00:42:04;;;;;;;9.85;5.05;;;;;;;-0.30;61.34;96858.91;5032246;28;20055;-73
2021/03/21 00:44:30;;;;;;;9.68;5.38;;;;;;;-0.44;60.54;96864.75;5031479;28;20088;-73
2021/03/21 00:46:57;;;;;;;10.43;5.05;;;;;;;-0.51;61.21;96859.53;5032216;28;20045;-71
2021/03/21 00:49:23;;;;;;;9.07;4.85;;;;;;;-0.47;61.17;96855.34;5031309;28;20045;-73
2021/03/21 00:51:49;;;;;;;9.52;5.10;;;;;;;-0.39;61.09;96863.00;5031613;28;20052;-72
2021/03/21 00:54:15;;;;;;;8.32;4.65;;;;;;;-0.41;61.71;96851.75;5031659;28;20046;-73
2021/03/21 00:56:41;;;;;;;8.35;4.60;;;;;;;-0.37;61.72;96854.72;5031504;28;20068;-73
2021/03/21 00:59:09;;;;;;;8.27;5.05;;;;;;;-0.50;60.93;96846.97;5011980;28;20387;-73
2021/03/21 01:01:35;;;;;;;10.15;4.88;;;;;;;-0.50;61.14;96853.13;5011426;28;20049;-73
2021/03/21 01:04:03;;;;;;;9.38;5.15;;;;;;;-0.53;60.82;96843.72;5012615;28;20394;-73
2021/03/21 01:06:30;;;;;;;6.88;4.63;;;;;;;-0.49;60.86;96845.94;5010928;28;20049;-73
2021/03/21 01:08:58;;;;;;;10.98;5.10;;;;;;;-0.50;60.69;96839.75;5012211;28;20049;-73
2021/03/21 01:11:26;;;;;;;10.05;4.88;;;;;;;-0.46;60.81;96838.25;5011262;28;20042;-73
2021/03/21 01:13:52;;;;;;;8.52;5.28;;;;;;;-0.48;61.16;96847.53;5011863;28;20050;-73
2021/03/21 01:16:22;;;;;;;10.82;5.07;;;;;;;-0.53;60.79;96845.56;5011241;28;20050;-73
2021/03/21 01:18:50;;;;;;;8.35;4.93;;;;;;;-0.63;61.06;96840.00;5027884;28;20581;-72
2021/03/21 01:21:17;;;;;;;10.13;5.22;;;;;;;-0.60;60.84;96835.00;5031241;28;20111;-73
2021/03/21 01:23:44;;;;;;;8.65;4.53;;;;;;;-0.56;61.17;96840.72;5030529;28;20045;-73
2021/03/21 01:26:12;;;;;;;9.85;5.20;;;;;;;-0.51;60.43;96835.47;5031462;28;20069;-73
2021/03/21 01:28:38;;;;;;;8.50;4.75;;;;;;;-0.43;60.40;96824.38;5030506;28;20042;-73
2021/03/21 01:31:07;;;;;;;9.85;4.93;;;;;;;-0.45;60.74;96823.00;5031153;28;20046;-73
2021/03/21 01:33:33;;;;;;;7.25;4.35;;;;;;;-0.37;60.65;96817.28;5030603;28;20046;-73
2021/03/21 01:36:01;;;;;;;9.68;4.88;;;;;;;-0.57;61.10;96812.34;5031123;28;20507;-73
2021/03/21 01:38:28;;;;;;;8.75;5.30;;;;;;;-0.59;60.80;96809.06;5030886;28;20041;-73
2021/03/21 01:40:57;;;;;;;9.63;4.25;;;;;;;-0.57;61.29;96813.16;5030658;28;20053;-73
2021/03/21 01:43:29;;;;;;;9.57;4.82;;;;;;;-0.47;61.14;96811.72;5030829;28;20408;-73
2021/03/21 01:45:55;;;;;;;7.65;4.72;;;;;;;-0.45;61.29;96813.13;5030391;28;20041;-73
2021/03/21 01:48:33;;;;;;;11.23;5.30;;;;;;;-0.38;61.21;96811.09;5031004;28;20148;-73
2021/03/21 01:51:01;;;;;;;7.95;4.68;;;;;;;-0.51;61.05;96807.91;5030211;28;20511;-73
2021/03/21 01:53:31;;;;;;;9.18;5.30;;;;;;;-0.42;61.38;96793.09;5030715;28;20037;-73
2021/03/21 01:55:57;;;;;;;10.10;4.95;;;;;;;-0.44;61.32;96793.34;5030665;28;20119;-73
2021/03/21 01:58:28;;;;;;;9.38;5.07;;;;;;;-0.44;60.73;96779.97;5030131;28;20045;-73
2021/03/21 02:00:56;;;;;;;8.60;4.70;;;;;;;-0.55;60.90;96780.81;5030317;28;20045;-74
2021/03/21 02:03:22;;;;;;;10.60;5.40;;;;;;;-0.73;61.32;96786.31;5029781;28;20052;-73
2021/03/21 02:05:51;;;;;;;9.40;5.10;;;;;;;-0.67;60.55;96775.50;5031127;28;20037;-73
2021/03/21 02:08:35;;;;;;;8.43;4.75;;;;;;;-0.62;60.00;96770.25;5029448;28;20048;-71
2021/03/21 02:11:08;;;;;;;8.23;4.82;;;;;;;-0.67;60.97;96769.34;5030878;28;20057;-73
2021/03/21 02:13:39;;;;;;;;;;;;;;;-0.57;61.43;96764.19;5030285;28;20056;-73
2021/03/21 02:16:10;;;;;;;14.75;5.90;;;;;;;-0.60;63.16;96760.13;5029987;28;19921;-73
2021/03/21 02:18:46;;;;;;;9.80;5.32;;;;;;;-0.62;64.20;96759.56;5030292;28;20408;-73
2021/03/21 02:21:19;;;;;;;10.50;5.15;;;;;;;-0.54;64.38;96766.38;5029116;28;20509;-73
2021/03/21 02:24:12;;;;;;;;;;;;;;;-0.44;64.40;96763.09;5031301;28;20088;-73
2021/03/21 02:26:51;;;;;;;9.77;5.00;;;;;;;-0.49;64.37;96761.13;5029615;28;19974;-73
2021/03/21 02:29:24;;;;;;;9.65;4.80;;;;;;;-0.48;63.23;96762.75;5010023;28;20053;-73
2021/03/21 02:31:55;;;;;;;10.38;5.30;;;;;;;-0.48;63.77;96768.09;5010487;28;20042;-73
2021/03/21 02:34:30;;;;;;;9.02;5.20;;;;;;;-0.46;63.51;96755.31;5009671;28;20120;-73
2021/03/21 02:37:07;;;;;;;8.82;4.80;;;;;;;-0.56;62.18;96747.91;5010923;28;20594;-73
2021/03/21 02:39:38;;;;;;;9.93;4.38;;;;;;;-0.47;61.51;96753.69;5009658;28;20050;-73
2021/03/21 02:42:09;;;;;;;8.45;4.85;;;;;;;-0.46;60.55;96749.16;5010674;28;20049;-73
2021/03/21 02:44:40;;;;;;;6.88;4.20;;;;;;;-0.44;60.60;96739.00;5010466;28;20549;-73
2021/03/21 02:47:12;;;;;;;7.38;4.60;;;;;;;-0.37;60.70;96731.66;5013022;28;20076;-73
2021/03/21 02:49:43;;;;;;;7.90;4.57;;;;;;;-0.56;60.75;96731.03;5030152;28;20060;-73
2021/03/21 02:52:12;;;;;;;8.63;4.65;;;;;;;-0.68;60.65;96728.41;5029115;28;20045;-73
2021/03/21 02:54:44;;;;;;;7.25;4.30;;;;;;;-0.54;59.97;96726.25;5030360;28;20045;-72
2021/03/21 02:57:13;;;;;;;8.82;4.82;;;;;;;-0.53;59.80;96719.84;5029032;28;20675;-73
2021/03/21 02:59:44;;;;;;;8.90;4.88;;;;;;;-0.46;59.62;96720.53;5030555;28;20053;-73
2021/03/21 03:02:13;;;;;;;9.55;4.68;;;;;;;-0.46;59.36;96717.88;5029075;28;20045;-73
2021/03/21 03:04:43;;;;;;;9.88;4.88;;;;;;;-0.50;59.34;96716.72;5030268;28;20118;-73
2021/03/21 03:07:15;;;;;;;8.63;4.70;;;;;;;-0.64;59.52;96712.69;5029449;28;20061;-73
2021/03/21 03:09:45;;;;;;;9.27;4.30;;;;;;;-0.55;59.47;96713.94;5029685;28;20668;-73
2021/03/21 03:12:17;;;;;;;8.40;4.93;;;;;;;-0.47;59.33;96707.38;5030713;28;20493;-73
2021/03/21 03:14:47;;;;;;;9.85;4.80;;;;;;;-0.47;59.17;96705.53;5033083;28;20057;-73
2021/03/21 03:17:26;;;;;;;6.97;4.45;;;;;;;-0.43;58.96;96706.66;5033813;28;20111;-73
2021/03/21 03:19:58;;;;;;;8.45;4.57;;;;;;;-0.45;58.15;96714.13;5033182;28;20056;-73
2021/03/21 03:22:31;;;;;;;9.50;5.05;;;;;;;-0.40;58.72;96708.06;5033395;28;20063;-73
2021/03/21 03:25:06;;;;;;;8.18;4.72;;;;;;;-0.38;58.67;96698.72;5033457;28;20050;-73
2021/03/21 03:27:39;;;;;;;7.35;4.18;;;;;;;-0.49;58.66;96696.94;5032736;28;20033;-73
2021/03/21 03:30:11;;;;;;;9.27;4.53;;;;;;;-0.45;59.17;96692.72;5033597;28;20078;-73
2021/03/21 03:32:37;;;;;;;7.75;4.35;;;;;;;-0.46;58.82;96690.28;5032622;28;20495;-73
2021/03/21 03:35:08;;;;;;;8.60;4.43;;;;;;;-0.45;58.50;96692.72;5033604;28;20041;-73
2021/03/21 03:37:35;;;;;;;7.22;4.22;;;;;;;-0.38;58.52;96682.69;5032462;28;20045;-73
2021/03/21 03:40:02;;;;;;;7.85;4.40;;;;;;;-0.41;58.29;96688.53;5033075;28;20099;-73
2021/03/21 03:42:38;;;;;;;7.35;4.22;;;;;;;-0.38;58.30;96685.34;5032736;28;20044;-73
2021/03/21 03:45:16;;;;;;;8.57;4.25;;;;;;;-0.41;57.75;96677.81;5032252;28;20053;-73
2021/03/21 03:47:54;;;;;;;9.52;4.35;;;;;;;-0.55;58.12;96671.94;5032183;28;20057;-73
2021/03/21 03:50:46;;;;;;;8.25;4.78;;;;;;;-0.49;58.99;96674.72;5032124;28;20046;-73
2021/03/21 03:53:25;;;;;;;8.60;4.20;;;;;;;-0.47;58.66;96673.44;5006704;28;20401;-73
2021/03/21 03:55:56;;;;;;;8.18;4.47;;;;;;;-0.46;58.26;96663.53;5010448;28;20042;-73
2021/03/21 03:58:25;;;;;;;6.68;4.20;;;;;;;-0.54;59.15;96665.53;4996415;28;20093;-74
2021/03/21 04:00:58;;;;;;;8.60;4.95;;;;;;;-0.52;58.90;96659.97;4991032;28;20093;-73
2021/03/21 04:03:34;;;;;;;7.32;3.80;;;;;;;-0.51;58.89;96671.47;4990061;28;20045;-73
2021/03/21 04:06:04;;;;;;;7.85;4.70;;;;;;;-0.50;59.18;96668.56;4991373;28;20783;-73
2021/03/21 04:08:38;;;;;;;8.50;4.28;;;;;;;-0.47;59.38;96668.09;5009721;28;20072;-73
2021/03/21 04:11:11;;;;;;;8.20;4.47;;;;;;;-0.52;59.14;96659.97;5019543;28;20047;-73
2021/03/21 04:13:42;;;;;;;7.68;4.55;;;;;;;-0.51;59.57;96663.44;5032826;28;20045;-73
2021/03/21 04:16:18;;;;;;;7.53;4.30;;;;;;;-0.48;59.85;96662.94;5032079;28;20050;-73
2021/03/21 04:18:52;;;;;;;9.60;5.28;;;;;;;-0.59;58.82;96659.28;5033219;28;20060;-73
2021/03/21 04:21:26;;;;;;;9.38;4.63;;;;;;;-0.61;59.19;96656.03;5032860;28;20469;-74
2021/03/21 04:23:57;;;;;;;7.78;4.50;;;;;;;-0.59;59.65;96657.41;5052627;28;20068;-73
2021/03/21 04:26:32;;;;;;;8.20;4.40;;;;;;;-0.56;59.95;96653.47;5051399;28;20450;-72
2021/03/21 04:29:07;;;;;;;7.75;4.55;;;;;;;-0.61;60.22;96650.69;5052257;28;20045;-73
2021/03/21 04:31:36;;;;;;;9.60;4.47;;;;;;;-0.53;59.23;96652.97;5052127;28;20037;-73
2021/03/21 04:34:06;;;;;;;7.88;4.63;;;;;;;-0.67;59.55;96643.63;5051790;28;20053;-73
2021/03/21 04:36:36;;;;;;;8.23;4.85;;;;;;;-0.63;59.79;96647.44;5052308;28;20098;-73
2021/03/21 04:39:05;;;;;;;7.60;4.43;;;;;;;-0.74;59.49;96637.59;5050969;28;20055;-73
2021/03/21 04:41:35;;;;;;;7.63;3.95;;;;;;;-0.73;60.06;96626.69;5052564;28;20506;-72
2021/03/21 04:44:06;;;;;;;9.23;4.80;;;;;;;-0.70;60.29;96625.38;5051222;28;20848;-73
2021/03/21 04:46:38;;;;;;;9.82;4.57;;;;;;;-0.69;60.08;96627.81;5052322;28;20496;-73
2021/03/21 04:49:04;;;;;;;8.18;4.03;;;;;;;-0.81;59.79;96624.38;5051339;28;20053;-73
2021/03/21 04:51:36;;;;;;;7.20;4.20;;;;;;;-0.82;59.54;96628.94;5052018;28;20056;-73
2021/03/21 04:54:05;;;;;;;7.53;4.65;;;;;;;-0.88;59.68;96629.88;5051395;28;20492;-73
2021/03/21 04:56:36;;;;;;;8.68;4.90;;;;;;;-0.77;60.30;96635.44;5051345;28;20045;-73
2021/03/21 04:59:06;;;;;;;7.70;4.60;;;;;;;-0.79;59.77;96631.09;5051924;28;20041;-73
2021/03/21 05:01:39;;;;;;;7.90;4.38;;;;;;;-0.74;60.15;96642.94;5050985;28;20037;-73
2021/03/21 05:04:10;;;;;;;11.40;4.57;;;;;;;-0.72;60.38;96638.19;5051744;28;20045;-73
2021/03/21 05:06:48;;;;;;;7.80;4.55;;;;;;;-0.67;60.59;96635.63;5050999;28;20049;-74
2021/03/21 05:09:19;;;;;;;7.90;4.43;;;;;;;-0.59;60.51;96637.88;5051244;28;20501;-73
2021/03/21 05:11:52;;;;;;;7.97;4.57;;;;;;;-0.60;60.33;96641.63;5051553;28;20128;-73
2021/03/21 05:14:25;;;;;;;8.35;3.80;;;;;;;-0.64;60.84;96645.81;5050612;28;20074;-73
2021/03/21 05:17:00;;;;;;;;;;;;;;;-0.66;60.49;96647.94;5052526;28;20051;-73
2021/03/21 05:19:36;;;;;;;10.32;4.75;;;;;;;-0.65;60.65;96646.88;5050312;28;19921;-73
2021/03/21 05:22:08;;;;;;;9.30;4.53;;;;;;;-0.64;60.89;96648.50;5051212;28;20045;-73
2021/03/21 05:24:39;;;;;;;8.55;4.57;;;;;;;-0.66;60.95;96642.59;5050862;28;20048;-73
2021/03/21 05:27:11;;;;;;;9.13;4.50;;;;;;;-0.67;61.12;96649.78;5050837;28;20122;-73
2021/03/21 05:29:46;;;;;;;8.50;4.57;;;;;;;-0.64;60.87;96635.13;5051172;28;20110;-73
2021/03/21 05:32:17;;;;;;;8.27;4.80;;;;;;;-0.60;60.52;96636.28;5050303;28;20045;-73
2021/03/21 05:34:44;;;;;;;9.15;4.50;;;;;;;-0.60;60.10;96637.06;5050879;28;20049;-72
2021/03/21 05:37:24;;;;;;;9.00;4.47;;;;;;;-0.47;60.22;96633.31;5050037;28;20049;-73
2021/03/21 05:40:00;;;;;;;8.13;4.07;;;;;;;-0.46;59.79;96637.59;5051335;28;20052;-73
2021/03/21 05:43:14;;;;;;;9.45;4.68;;;;;;;-0.49;60.27;96626.56;5050071;28;20045;-73
2021/03/21 05:46:15;;;;;;;7.00;4.25;;;;;;;-0.67;60.45;96624.91;5025366;28;20037;-72
2021/03/21 05:48:53;;;;;;;8.18;4.40;;;;;;;-0.61;60.61;96626.63;5051208;28;20078;-73
2021/03/21 05:51:59;;;;;;;8.55;4.50;;;;;;;-0.64;60.41;96632.44;5050260;28;20056;-73
2021/03/21 05:55:00;;;;;;;9.55;4.10;;;;;;;-0.61;61.31;96634.66;5029828;28;20045;-73
2021/03/21 05:57:48;;;;;;;7.32;4.22;;;;;;;-0.52;61.38;96633.22;5037050;28;20388;-73
2021/03/21 06:01:00;;;;;;;8.80;4.45;;;;;;;-0.64;60.67;96637.78;5049722;28;20045;-72
2021/03/21 06:04:10;;;;;;;10.68;4.60;;;;;;;-0.67;60.77;96631.06;5049472;28;20048;-73
2021/03/21 06:06:58;;;;;;;8.35;4.78;;;;;;;-0.65;61.68;96628.97;5050636;28;20098;-72
2021/03/21 06:09:31;;;;;;;8.25;4.35;;;;;;;-0.57;61.12;96625.09;5050000;28;20060;-73
2021/03/21 06:12:04;;;;;;;;;;;;;;;-0.45;61.29;96615.13;5050608;28;20048;-73
2021/03/21 06:15:13;;;;;;;7.67;3.70;;;;;;;-0.42;60.80;96611.97;5050647;28;20338;-73
2021/03/21 06:18:22;;;;;;;6.85;4.30;;;;;;;-0.44;60.82;96606.06;5049771;28;20124;-73
2021/03/21 06:21:42;;;;;;;8.25;4.50;;;;;;;-0.41;60.29;96605.59;5049487;28;20033;-72
2021/03/21 06:24:36;;;;;;;10.05;4.40;;;;;;;-0.44;60.37;96600.72;5025961;28;20046;-73
2021/03/21 06:27:17;;;;;;;7.95;4.20;;;;;;;-0.41;60.36;96602.91;5049597;28;20056;-73
2021/03/21 06:30:26;;;;;;;7.38;4.13;;;;;;;-0.51;60.58;96602.75;5049905;28;20045;-72
2021/03/21 06:33:12;;;;;;;7.88;3.97;;;;;;;-0.46;59.91;96600.16;5050973;28;20106;-71
2021/03/21 06:36:05;;;;;;;8.43;4.28;;;;;;;-0.51;59.69;96597.38;5049698;28;20044;-71
2021/03/21 06:39:06;;;;;;;7.25;3.42;;;;;;;-0.39;60.34;96595.44;5047010;28;20533;-72
2021/03/21 06:41:51;;;;;;;8.07;3.72;;;;;;;-0.36;60.10;96583.47;5039646;28;20415;-71
2021/03/21 06:44:42;;;;;;;7.15;3.60;;;;;;;-0.25;60.25;96585.25;5049217;28;20045;-71
2021/03/21 06:47:21;;;;;;;7.72;4.10;;;;;;;-0.35;59.64;96591.22;5052189;28;20051;-71
2021/03/21 06:50:14;;;;;;;6.70;3.75;;;;;;;-0.39;59.51;96579.38;5054351;28;20041;-71
2021/03/21 06:52:49;;;;;;;6.70;3.80;;;;;;;-0.35;59.40;96580.53;5053532;28;20045;-72
2021/03/21 06:55:21;;;;;;;6.13;3.45;;;;;;;-0.27;59.63;96572.09;5054214;28;20499;-73
2021/03/21 06:58:31;;;;;;;7.65;3.67;;;;;;;-0.30;59.36;96572.59;5053504;28;20045;-73
2021/03/21 07:01:18;;;;;;;6.85;3.97;;;;;;;-0.29;59.60;96562.69;5053361;28;20480;-71
2021/03/21 07:04:44;;;;;;;5.88;3.25;;;;;;;-0.12;59.43;96568.03;5054344;28;20468;-73
2021/03/21 07:07:58;;;;;;;5.95;3.63;;;;;;;-0.01;59.21;96564.44;5053354;28;20115;-73
2021/03/21 07:10:57;;;;;;;5.88;3.45;;;;;;;0.07;58.29;96558.69;5052599;28;20052;-73
2021/03/21 07:13:58;;;;;;;7.45;3.28;;;;;;;-0.03;57.90;96550.50;5053506;28;20589;-73
2021/03/21 07:16:52;;;;;;;8.50;3.60;;;;;;;0.00;58.04;96550.03;5028808;28;20108;-72
2021/03/21 07:20:06;;;;;;;6.28;3.50;;;;;;;0.06;58.23;96553.59;5052630;28;20542;-73
2021/03/21 07:23:02;;;;;;;6.63;3.00;;;;;;;0.28;57.97;96553.63;5053255;28;20041;-73
2021/03/21 07:25:55;;;;;;;6.30;3.47;;;;;;;0.28;57.46;96550.94;5051890;28;20116;-73
2021/03/21 07:28:49;;;;;;;;;;;;;;;0.22;57.02;96558.91;5052668;28;20048;-74
2021/03/21 07:31:30;;;;;;;5.57;2.80;;;;;;;0.24;57.76;96548.75;5036210;28;20003;-73
2021/03/21 07:34:18;;;;;;;6.78;2.67;;;;;;;0.23;57.28;96549.00;5033320;28;20041;-73
2021/03/21 07:36:55;;;;;;;5.45;3.10;;;;;;;0.35;56.99;96544.31;5032265;28;20108;-73
2021/03/21 07:39:37;;;;;;;7.82;3.88;;;;;;;0.42;56.76;96539.59;5033313;28;20049;-73
2021/03/21 07:42:16;;;;;;;8.20;3.63;;;;;;;0.43;56.72;96535.06;5030638;28;20404;-73
2021/03/21 07:45:19;;;;;;;4.97;2.83;;;;;;;0.38;56.62;96525.09;5033233;28;20485;-73
2021/03/21 07:48:05;;;;;;;5.95;2.70;;;;;;;0.40;56.31;96524.81;5010874;28;20056;-73
2021/03/21 07:50:48;;;;;;;5.53;3.08;;;;;;;0.48;55.63;96535.13;5032050;28;20041;-73
2021/03/21 07:53:34;;;;;;;5.40;3.53;;;;;;;0.49;56.05;96536.75;5031508;28;20524;-74
2021/03/21 07:56:08;;;;;;;4.75;2.92;;;;;;;0.55;55.91;96551.81;5032799;28;20045;-73
2021/03/21 07:58:45;;;;;;;4.97;3.10;;;;;;;0.49;55.67;96539.41;5031590;28;20045;-73
2021/03/21 08:01:11;;;;;;;9.32;3.40;;;;;;;0.43;56.04;96543.09;5032862;28;20431;-73
2021/03/21 08:03:45;;;;;;;7.28;3.60;;;;;;;0.27;55.78;96538.59;5032231;28;20052;-74
2021/03/21 08:06:15;;;;;;;5.95;3.03;;;;;;;0.35;56.48;96535.47;5032676;28;20041;-74
2021/03/21 08:08:45;;;;;;;6.68;3.25;;;;;;;0.43;55.73;96540.41;5026826;28;20090;-73
2021/03/21 08:11:17;;;;;;;6.70;3.45;;;;;;;0.34;56.23;96533.88;5022732;28;20049;-73
2021/03/21 08:13:47;;;;;;;4.75;2.85;;;;;;;0.40;56.76;96538.22;5028152;28;20041;-73
2021/03/21 08:16:17;;;;;;;5.55;3.20;;;;;;;0.47;55.80;96538.84;5028400;28;20076;-73
2021/03/21 08:18:46;;;;;;;7.35;3.03;;;;;;;0.47;55.93;96538.84;5029732;28;20060;-74
2021/03/21 08:21:22;;;;;;;6.63;3.00;;;;;;;0.42;56.56;96536.13;5028213;28;20105;-74
2021/03/21 08:23:51;;;;;;;6.88;3.22;;;;;;;0.42;55.72;96536.13;5029363;28;20049;-73
2021/03/21 08:26:24;;;;;;;5.75;3.08;;;;;;;0.51;55.58;96532.72;5028065;28;20053;-74
2021/03/21 08:29:03;;;;;;;5.88;3.30;;;;;;;0.47;55.71;96536.16;5029040;28;20052;-74
2021/03/21 08:31:33;;;;;;;5.88;3.03;;;;;;;0.47;56.32;96534.31;5028745;28;20045;-73
2021/03/21 08:34:38;;;;;;;8.48;3.30;;;;;;;0.52;55.35;96536.22;5028876;28;20053;-74
2021/03/21 08:37:19;;;;;;;5.75;3.10;;;;;;;0.51;55.75;96534.59;5028256;28;20666;-74
2021/03/21 08:39:47;;;;;;;6.90;3.85;;;;;;;0.44;55.11;96534.00;5027964;28;20049;-74
2021/03/21 08:42:28;;;;;;;8.32;3.67;;;;;;;0.39;55.19;96532.06;5028357;28;20071;-74
2021/03/21 08:45:21;;;;;;;5.80;3.13;;;;;;;0.34;55.89;96523.16;5028755;28;20398;-74
2021/03/21 08:47:56;;;;;;;5.47;3.20;;;;;;;0.42;56.03;96522.72;5032946;28;20041;-74
2021/03/21 08:50:35;;;;;;;5.13;3.20;;;;;;;0.45;54.99;96516.84;5028550;28;20288;-74
2021/03/21 08:53:03;;;;;;;6.55;3.33;;;;;;;0.41;55.87;96503.13;5040565;28;20056;-75
2021/03/21 08:55:32;;;;;;;5.47;2.95;;;;;;;0.39;55.58;96504.47;5048222;28;20051;-74
2021/03/21 08:58:00;;;;;;;6.13;3.20;;;;;;;0.44;55.87;96501.84;5037311;28;20175;-74
2021/03/21 09:00:33;;;;;;;7.50;2.88;;;;;;;0.38;55.83;96509.00;5027997;28;20053;-74
2021/03/21 09:02:59;;;;;;;12.03;3.33;;;;;;;0.43;55.50;96506.41;5028588;28;20049;-74
2021/03/21 09:05:26;;;;;;;6.10;2.90;;;;;;;0.44;56.30;96508.00;5027610;28;20512;-74
2021/03/21 09:08:06;;;;;;;5.32;2.78;;;;;;;0.50;56.66;96500.84;5028786;28;20049;-74
2021/03/21 09:10:34;;;;;;;7.15;3.60;;;;;;;0.53;56.12;96505.72;5027625;28;20048;-74
2021/03/21 09:13:19;;;;;;;6.07;3.47;;;;;;;0.46;55.58;96505.06;5028861;28;20061;-74
2021/03/21 09:15:46;;;;;;;6.85;3.22;;;;;;;0.59;56.39;96503.91;5027997;28;20132;-74
2021/03/21 09:18:27;;;;;;;7.32;3.95;;;;;;;0.62;55.91;96493.47;5027438;28;20045;-74
2021/03/21 09:21:06;;;;;;;5.63;2.97;;;;;;;0.71;55.75;96497.31;5028556;28;20103;-74
2021/03/21 09:23:38;;;;;;;5.25;3.20;;;;;;;0.62;56.13;96493.47;5027394;28;20045;-74
2021/03/21 09:26:09;;;;;;;6.43;3.08;;;;;;;0.67;56.14;96490.84;5028193;28;20532;-74
2021/03/21 09:28:37;;;;;;;5.97;3.15;;;;;;;0.74;56.51;96499.53;5027144;28;20123;-73
2021/03/21 09:31:08;;;;;;;6.15;3.38;;;;;;;0.76;54.42;96494.69;5027706;28;20130;-74
2021/03/21 09:33:40;;;;;;;5.55;3.33;;;;;;;0.81;55.71;96496.63;5027796;28;20045;-74
2021/03/21 09:36:11;;;;;;;6.05;3.20;;;;;;;0.95;55.29;96502.41;5027222;28;20049;-74
2021/03/21 09:38:46;;;;;;;6.68;3.20;;;;;;;0.93;54.46;96496.47;5027791;28;20049;-74
2021/03/21 09:41:14;;;;;;;7.05;3.20;;;;;;;0.99;54.83;96503.50;5027402;28;20497;-73
2021/03/21 09:43:42;;;;;;;8.57;3.08;;;;;;;0.95;55.04;96497.84;5028173;28;20045;-73
2021/03/21 09:46:36;;;;;;;8.38;3.05;;;;;;;0.94;55.22;96500.78;5026778;28;20060;-73
2021/03/21 09:49:08;;;;;;;5.45;3.20;;;;;;;0.97;55.03;96506.44;5025098;28;20049;-74
2021/03/21 09:51:43;;;;;;;5.25;3.13;;;;;;;0.97;54.75;96505.63;5027237;28;20045;-74
2021/03/21 09:54:28;;;;;;;9.63;3.22;;;;;;;0.91;55.38;96507.47;5026795;28;20053;-74
2021/03/21 09:57:19;;;;;;;6.88;3.88;;;;;;;0.95;55.46;96510.47;5027833;28;20072;-74
2021/03/21 09:59:55;;;;;;;6.65;3.65;;;;;;;1.05;56.06;96513.25;5026876;28;20700;-73
2021/03/21 10:02:30;;;;;;;6.63;3.45;;;;;;;1.00;55.29;96505.94;5027336;28;20144;-74
2021/03/21 10:04:59;;;;;;;6.13;3.45;;;;;;;0.99;55.19;96508.88;5027911;28;20041;-73
2021/03/21 10:07:35;;;;;;;6.80;3.50;;;;;;;0.87;55.89;96505.53;5027327;28;20045;-74
2021/03/21 10:10:08;;;;;;;7.70;3.65;;;;;;;0.84;55.40;96503.38;5027612;28;20055;-74
2021/03/21 10:12:41;;;;;;;5.75;3.30;;;;;;;0.94;55.84;96490.03;5027122;28;20128;-74
2021/03/21 10:15:11;;;;;;;5.70;3.65;;;;;;;0.92;56.28;96494.88;5027394;28;20461;-74
2021/03/21 10:17:52;;;;;;;8.00;4.05;;;;;;;0.81;55.96;96487.78;5026509;28;20049;-74
2021/03/21 10:20:21;;;;;;;7.43;3.53;;;;;;;0.80;56.06;96489.66;5026598;28;20064;-74
2021/03/21 10:22:55;;;;;;;7.15;3.33;;;;;;;0.75;56.27;96490.41;5026822;28;20045;-74
2021/03/21 10:25:58;;;;;;;7.78;3.65;;;;;;;0.89;56.70;96492.66;5026488;28;20057;-74
2021/03/21 10:28:52;;;;;;;6.82;3.40;;;;;;;0.91;56.56;96480.66;5027041;28;20053;-73
2021/03/21 10:31:37;;;;;;;6.20;3.30;;;;;;;0.92;56.57;96473.41;5026696;28;20049;-74
2021/03/21 10:34:33;;;;;;;7.43;3.75;;;;;;;0.97;57.26;96473.47;5026335;28;20115;-74
2021/03/21 10:36:59;;;;;;;6.32;3.78;;;;;;;1.03;57.32;96473.25;5027695;28;20079;-74
2021/03/21 10:40:06;;;;;;;7.10;4.15;;;;;;;1.03;56.82;96467.06;5026158;28;20061;-74
2021/03/21 10:42:45;;;;;;;8.52;3.58;;;;;;;1.11;57.12;96477.34;4979451;28;20496;-73
2021/03/21 10:45:16;;;;;;;7.30;3.75;;;;;;;1.13;55.86;96471.72;5026839;28;20088;-74
2021/03/21 10:47:48;;;;;;;7.60;3.78;;;;;;;1.02;56.46;96470.81;5026238;28;20041;-75
2021/03/21 10:50:50;;;;;;;6.97;3.83;;;;;;;0.94;55.91;96479.31;5027084;28;20500;-74
2021/03/21 10:53:26;;;;;;;7.20;3.70;;;;;;;0.97;57.27;96468.09;5040787;28;20091;-74
2021/03/21 10:56:05;;;;;;;6.97;3.70;;;;;;;1.09;57.25;96471.41;5046679;28;20045;-74
2021/03/21 10:58:39;;;;;;;12.20;5.00;;;;;;;1.06;58.02;96461.22;5031667;28;20069;-74
2021/03/21 11:01:31;;;;;;;8.88;4.00;;;;;;;0.95;58.38;96454.97;5025748;28;20056;-74
2021/03/21 11:04:18;;;;;;;7.30;4.10;;;;;;;0.98;59.91;96453.63;5027581;28;20057;-74
2021/03/21 11:07:00;;;;;;;7.30;4.35;;;;;;;0.91;61.01;96442.31;5012378;28;20041;-74
2021/03/21 11:09:32;;;;;;;6.80;3.97;;;;;;;1.03;61.71;96434.91;5024736;28;20102;-73
2021/03/21 11:12:01;;;;;;;9.90;4.73;;;;;;;1.03;61.64;96430.34;5027211;28;20053;-74
2021/03/21 11:14:32;;;;;;;8.48;4.47;;;;;;;1.16;62.67;96444.41;5025948;28;20057;-73
2021/03/21 11:17:01;;;;;;;6.47;4.07;;;;;;;1.19;62.19;96444.69;5027012;28;20056;-74
2021/03/21 11:19:29;;;;;;;8.90;4.63;;;;;;;1.26;63.69;96439.94;5025939;28;20126;-74
2021/03/21 11:21:58;;;;;;;9.02;4.20;;;;;;;1.37;63.23;96440.00;5029924;28;20482;-74
2021/03/21 11:24:33;;;;;;;8.57;4.80;;;;;;;1.25;64.62;96438.31;5045906;28;20567;-74
2021/03/21 11:27:00;;;;;;;11.30;4.75;;;;;;;1.33;64.49;96439.72;5043571;28;20106;-74
2021/03/21 11:29:31;;;;;;;7.90;4.50;;;;;;;1.17;65.75;96436.09;5026128;28;20053;-74
2021/03/21 11:32:10;;;;;;;9.23;4.97;;;;;;;1.06;66.14;96430.91;5026359;28;20057;-74
2021/03/21 11:34:36;;;;;;;8.93;4.78;;;;;;;1.07;66.51;96425.28;5029972;28;20038;-74
2021/03/21 11:37:05;;;;;;;10.10;5.10;;;;;;;0.98;66.18;96432.16;5029128;28;20576;-74
2021/03/21 11:39:38;;;;;;;7.63;4.90;;;;;;;0.99;67.40;96434.63;5030522;28;20045;-74
2021/03/21 11:42:24;;;;;;;10.30;5.78;;;;;;;0.88;67.50;96438.25;5029600;28;20103;-74
2021/03/21 11:44:52;;;;;;;10.88;4.80;;;;;;;0.93;68.66;96430.25;5030296;28;20045;-74
2021/03/21 11:47:30;;;;;;;11.13;5.10;;;;;;;0.87;68.26;96431.28;5029605;28;20126;-74
2021/03/21 11:49:58;;;;;;;9.80;5.38;;;;;;;0.74;68.65;96426.34;5029432;28;20142;-74
2021/03/21 11:52:27;;;;;;;9.50;5.55;;;;;;;0.77;69.57;96421.25;5029825;28;20045;-75
2021/03/21 11:54:54;;;;;;;10.10;5.32;;;;;;;0.82;69.23;96422.38;5029413;28;20045;-74
2021/03/21 11:57:56;;;;;;;9.70;5.72;;;;;;;0.61;69.56;96416.81;5029590;28;20049;-74
2021/03/21 12:00:27;;;;;;;10.20;5.60;;;;;;;0.64;70.25;96412.84;5029234;28;20059;-74
2021/03/21 12:02:59;;;;;;;9.93;5.40;;;;;;;0.65;69.45;96404.53;5029531;28;20046;-74
2021/03/21 12:05:28;;;;;;;11.10;5.60;;;;;;;0.60;68.96;96399.13;5029551;28;20041;-74
2021/03/21 12:08:06;;;;;;;13.98;5.40;;;;;;;0.69;69.03;96391.44;5028807;28;20508;-74
2021/03/21 12:10:35;;;;;;;9.60;5.45;;;;;;;0.73;69.59;96397.91;5030039;28;20065;-74
2021/03/21 12:13:33;;;;;;;12.45;5.72;;;;;;;0.87;68.74;96396.41;5029295;28;20679;-74
2021/03/21 12:16:01;;;;;;;14.48;5.43;;;;;;;0.84;68.60;96396.16;5029472;28;20171;-74
2021/03/21 12:18:31;;;;;;;11.48;5.68;;;;;;;0.74;68.40;96384.25;5029220;28;20083;-74